sensor_id;sensor_type;location;lat;lon;timestamp;temperature;humidity
27258;DHT22;62045;49.986;8.672;2023-01-15T00:03:40;16.60;61.80
27258;DHT22;62045;49.986;8.672;2023-01-15T00:08:41;16.60;61.90
27258;DHT22;62045;49.986;8.672;2023-01-15T00:13:43;16.50;61.90
27258;DHT22;62045;49.986;8.672;2023-01-15T00:18:49;16.50;62.00
27258;DHT22;62045;49.986;8.672;2023-01-15T00:23:50;16.40;62.00
27258;DHT22;62045;49.986;8.672;2023-01-15T00:28:52;16.40;62.10
27258;DHT22;62045;49.986;8.672;2023-01-15T00:33:53;16.40;62.20
27258;DHT22;62045;49.986;8.672;2023-01-15T00:38:53;16.40;62.10
27258;DHT22;62045;49.986;8.672;2023-01-15T00:43:55;16.40;62.00
27258;DHT22;62045;49.986;8.672;2023-01-15T00:48:56;16.50;61.90
27258;DHT22;62045;49.986;8.672;2023-01-15T00:53:57;16.60;61.80
27258;DHT22;62045;49.986;8.672;2023-01-15T00:59:02;16.60;61.70
27258;DHT22;62045;49.986;8.672;2023-01-15T01:04:03;16.70;61.70
27258;DHT22;62045;49.986;8.672;2023-01-15T01:09:04;16.70;61.60
27258;DHT22;62045;49.986;8.672;2023-01-15T01:14:07;16.70;61.70
27258;DHT22;62045;49.986;8.672;2023-01-15T01:19:10;16.60;61.70
27258;DHT22;62045;49.986;8.672;2023-01-15T01:24:14;16.60;61.80
27258;DHT22;62045;49.986;8.672;2023-01-15T01:29:19;16.50;61.80
27258;DHT22;62045;49.986;8.672;2023-01-15T01:34:20;16.50;61.90
27258;DHT22;62045;49.986;8.672;2023-01-15T01:39:21;16.50;62.00
27258;DHT22;62045;49.986;8.672;2023-01-15T01:45:00;16.50;62.00
27258;DHT22;62045;49.986;8.672;2023-01-15T01:50:06;16.50;61.90
27258;DHT22;62045;49.986;8.672;2023-01-15T01:55:09;16.60;61.80
27258;DHT22;62045;49.986;8.672;2023-01-15T02:00:12;16.60;61.70
27258;DHT22;62045;49.986;8.672;2023-01-15T02:05:22;16.70;61.70
27258;DHT22;62045;49.986;8.672;2023-01-15T02:10:25;16.70;61.60
27258;DHT22;62045;49.986;8.672;2023-01-15T02:15:32;16.60;61.60
27258;DHT22;62045;49.986;8.672;2023-01-15T02:20:37;16.60;61.70
27258;DHT22;62045;49.986;8.672;2023-01-15T02:31:14;16.60;61.80
27258;DHT22;62045;49.986;8.672;2023-01-15T02:36:18;16.50;61.80
27258;DHT22;62045;49.986;8.672;2023-01-15T02:41:30;16.50;61.80
27258;DHT22;62045;49.986;8.672;2023-01-15T02:46:35;16.50;61.80
27258;DHT22;62045;49.986;8.672;2023-01-15T02:51:45;16.60;61.80
27258;DHT22;62045;49.986;8.672;2023-01-15T02:56:48;16.60;61.60
27258;DHT22;62045;49.986;8.672;2023-01-15T03:01:54;16.60;61.60
27258;DHT22;62045;49.986;8.672;2023-01-15T03:07:03;16.60;61.50
27258;DHT22;62045;49.986;8.672;2023-01-15T03:12:11;16.60;61.50
27258;DHT22;62045;49.986;8.672;2023-01-15T03:17:20;16.60;61.50
27258;DHT22;62045;49.986;8.672;2023-01-15T03:22:25;16.50;61.60
27258;DHT22;62045;49.986;8.672;2023-01-15T03:27:28;16.50;61.60
27258;DHT22;62045;49.986;8.672;2023-01-15T03:32:32;16.50;61.80
27258;DHT22;62045;49.986;8.672;2023-01-15T03:37:33;16.50;61.80
27258;DHT22;62045;49.986;8.672;2023-01-15T03:42:43;16.50;61.70
27258;DHT22;62045;49.986;8.672;2023-01-15T03:47:55;16.50;61.70
27258;DHT22;62045;49.986;8.672;2023-01-15T03:53:05;16.60;61.60
27258;DHT22;62045;49.986;8.672;2023-01-15T03:58:10;16.60;61.40
27258;DHT22;62045;49.986;8.672;2023-01-15T04:03:17;16.60;61.40
27258;DHT22;62045;49.986;8.672;2023-01-15T04:08:19;16.70;61.50
27258;DHT22;62045;49.986;8.672;2023-01-15T04:13:23;16.60;61.40
27258;DHT22;62045;49.986;8.672;2023-01-15T04:18:27;16.60;61.60
27258;DHT22;62045;49.986;8.672;2023-01-15T04:23:29;16.60;61.70
27258;DHT22;62045;49.986;8.672;2023-01-15T04:28:30;16.50;61.80
27258;DHT22;62045;49.986;8.672;2023-01-15T04:33:32;16.50;61.80
27258;DHT22;62045;49.986;8.672;2023-01-15T04:38:33;16.50;61.80
27258;DHT22;62045;49.986;8.672;2023-01-15T04:43:34;16.60;61.80
27258;DHT22;62045;49.986;8.672;2023-01-15T04:48:37;16.60;61.70
27258;DHT22;62045;49.986;8.672;2023-01-15T04:53:38;16.60;61.70
27258;DHT22;62045;49.986;8.672;2023-01-15T04:58:38;16.60;61.60
27258;DHT22;62045;49.986;8.672;2023-01-15T05:03:41;16.50;61.60
27258;DHT22;62045;49.986;8.672;2023-01-15T05:08:42;16.50;61.70
27258;DHT22;62045;49.986;8.672;2023-01-15T05:13:42;16.50;61.70
27258;DHT22;62045;49.986;8.672;2023-01-15T05:18:46;16.50;61.80
27258;DHT22;62045;49.986;8.672;2023-01-15T05:23:47;16.50;61.80
27258;DHT22;62045;49.986;8.672;2023-01-15T05:28:48;16.50;61.70
27258;DHT22;62045;49.986;8.672;2023-01-15T05:33:51;16.60;61.60
27258;DHT22;62045;49.986;8.672;2023-01-15T05:38:52;16.60;61.40
27258;DHT22;62045;49.986;8.672;2023-01-15T05:43:54;16.70;61.40
27258;DHT22;62045;49.986;8.672;2023-01-15T05:48:59;16.70;61.40
27258;DHT22;62045;49.986;8.672;2023-01-15T05:54:01;16.60;61.30
27258;DHT22;62045;49.986;8.672;2023-01-15T05:59:02;16.60;61.40
27258;DHT22;62045;49.986;8.672;2023-01-15T06:04:05;16.50;61.40
27258;DHT22;62045;49.986;8.672;2023-01-15T06:09:06;16.50;61.50
27258;DHT22;62045;49.986;8.672;2023-01-15T06:14:08;16.50;61.60
27258;DHT22;62045;49.986;8.672;2023-01-15T06:19:12;16.50;61.70
27258;DHT22;62045;49.986;8.672;2023-01-15T06:24:13;16.50;61.60
27258;DHT22;62045;49.986;8.672;2023-01-15T06:29:13;16.60;61.40
27258;DHT22;62045;49.986;8.672;2023-01-15T06:34:15;16.70;61.30
27258;DHT22;62045;49.986;8.672;2023-01-15T06:39:16;16.70;61.10
27258;DHT22;62045;49.986;8.672;2023-01-15T06:44:18;16.70;61.00
27258;DHT22;62045;49.986;8.672;2023-01-15T06:49:20;16.70;61.10
27258;DHT22;62045;49.986;8.672;2023-01-15T06:54:20;16.70;61.10
27258;DHT22;62045;49.986;8.672;2023-01-15T06:59:21;16.70;61.20
27258;DHT22;62045;49.986;8.672;2023-01-15T07:04:23;16.60;61.20
27258;DHT22;62045;49.986;8.672;2023-01-15T07:09:24;16.50;61.30
27258;DHT22;62045;49.986;8.672;2023-01-15T07:14:25;16.50;61.50
27258;DHT22;62045;49.986;8.672;2023-01-15T07:19:28;16.50;61.60
27258;DHT22;62045;49.986;8.672;2023-01-15T07:24:28;16.60;61.60
27258;DHT22;62045;49.986;8.672;2023-01-15T07:29:29;16.60;61.40
27258;DHT22;62045;49.986;8.672;2023-01-15T07:34:31;16.70;61.30
27258;DHT22;62045;49.986;8.672;2023-01-15T07:39:32;16.80;61.20
27258;DHT22;62045;49.986;8.672;2023-01-15T07:44:33;16.80;61.20
27258;DHT22;62045;49.986;8.672;2023-01-15T07:49:35;16.80;61.20
27258;DHT22;62045;49.986;8.672;2023-01-15T07:54:36;16.70;61.10
27258;DHT22;62045;49.986;8.672;2023-01-15T07:59:36;16.70;61.20
27258;DHT22;62045;49.986;8.672;2023-01-15T08:04:39;16.60;61.20
27258;DHT22;62045;49.986;8.672;2023-01-15T08:09:40;16.50;61.40
27258;DHT22;62045;49.986;8.672;2023-01-15T08:14:40;16.50;61.40
27258;DHT22;62045;49.986;8.672;2023-01-15T08:19:42;16.50;61.60
27258;DHT22;62045;49.986;8.672;2023-01-15T08:24:43;16.50;61.50
27258;DHT22;62045;49.986;8.672;2023-01-15T08:29:44;16.60;61.40
27258;DHT22;62045;49.986;8.672;2023-01-15T08:34:46;16.70;61.30
27258;DHT22;62045;49.986;8.672;2023-01-15T08:39:46;16.80;61.10
27258;DHT22;62045;49.986;8.672;2023-01-15T08:44:47;16.80;61.10
27258;DHT22;62045;49.986;8.672;2023-01-15T08:49:49;16.80;60.90
27258;DHT22;62045;49.986;8.672;2023-01-15T08:54:50;16.70;60.90
27258;DHT22;62045;49.986;8.672;2023-01-15T08:59:51;16.70;61.00
27258;DHT22;62045;49.986;8.672;2023-01-15T09:04:53;16.70;61.00
27258;DHT22;62045;49.986;8.672;2023-01-15T09:09:53;16.60;61.10
27258;DHT22;62045;49.986;8.672;2023-01-15T09:14:54;16.50;61.20
27258;DHT22;62045;49.986;8.672;2023-01-15T09:19:56;16.50;61.10
27258;DHT22;62045;49.986;8.672;2023-01-15T09:24:57;16.50;60.70
27258;DHT22;62045;49.986;8.672;2023-01-15T09:29:58;16.60;60.20
27258;DHT22;62045;49.986;8.672;2023-01-15T09:35:00;16.60;59.90
27258;DHT22;62045;49.986;8.672;2023-01-15T09:40:01;16.60;59.60
27258;DHT22;62045;49.986;8.672;2023-01-15T09:45:12;16.60;59.60
27258;DHT22;62045;49.986;8.672;2023-01-15T09:50:24;16.50;59.70
27258;DHT22;62045;49.986;8.672;2023-01-15T09:55:29;16.50;59.90
27258;DHT22;62045;49.986;8.672;2023-01-15T10:00:34;16.50;60.10
27258;DHT22;62045;49.986;8.672;2023-01-15T10:05:42;16.60;60.30
27258;DHT22;62045;49.986;8.672;2023-01-15T10:10:47;16.60;60.20
27258;DHT22;62045;49.986;8.672;2023-01-15T10:15:48;16.60;60.20
27258;DHT22;62045;49.986;8.672;2023-01-15T10:21:12;16.70;60.10
27258;DHT22;62045;49.986;8.672;2023-01-15T10:26:28;16.70;60.00
27258;DHT22;62045;49.986;8.672;2023-01-15T10:31:49;16.70;60.00
27258;DHT22;62045;49.986;8.672;2023-01-15T10:36:56;16.70;60.10
27258;DHT22;62045;49.986;8.672;2023-01-15T10:42:05;16.70;60.20
27258;DHT22;62045;49.986;8.672;2023-01-15T10:47:14;16.60;60.30
27258;DHT22;62045;49.986;8.672;2023-01-15T10:52:24;16.50;60.40
27258;DHT22;62045;49.986;8.672;2023-01-15T10:57:37;16.50;60.40
27258;DHT22;62045;49.986;8.672;2023-01-15T11:02:43;16.50;60.50
27258;DHT22;62045;49.986;8.672;2023-01-15T11:07:47;16.60;60.50
27258;DHT22;62045;49.986;8.672;2023-01-15T11:12:51;16.70;59.80
27258;DHT22;62045;49.986;8.672;2023-01-15T11:17:52;16.70;59.10
27258;DHT22;62045;49.986;8.672;2023-01-15T11:22:55;16.70;58.50
27258;DHT22;62045;49.986;8.672;2023-01-15T11:27:58;16.70;57.90
27258;DHT22;62045;49.986;8.672;2023-01-15T11:33:00;16.70;57.40
27258;DHT22;62045;49.986;8.672;2023-01-15T11:38:10;16.70;57.50
27258;DHT22;62045;49.986;8.672;2023-01-15T11:43:19;16.80;59.10
27258;DHT22;62045;49.986;8.672;2023-01-15T11:48:22;16.90;58.40
27258;DHT22;62045;49.986;8.672;2023-01-15T11:53:26;16.90;58.50
27258;DHT22;62045;49.986;8.672;2023-01-15T11:58:32;16.90;57.40
27258;DHT22;62045;49.986;8.672;2023-01-15T12:03:35;16.80;57.10
27258;DHT22;62045;49.986;8.672;2023-01-15T12:08:45;16.80;56.80
27258;DHT22;62045;49.986;8.672;2023-01-15T12:13:52;16.80;56.70
27258;DHT22;62045;49.986;8.672;2023-01-15T12:19:00;16.70;57.30
27258;DHT22;62045;49.986;8.672;2023-01-15T12:24:26;16.80;57.90
27258;DHT22;62045;49.986;8.672;2023-01-15T12:29:34;16.90;57.70
27258;DHT22;62045;49.986;8.672;2023-01-15T12:34:41;16.90;57.30
27258;DHT22;62045;49.986;8.672;2023-01-15T12:39:48;16.80;56.90
27258;DHT22;62045;49.986;8.672;2023-01-15T12:44:52;16.80;56.40
27258;DHT22;62045;49.986;8.672;2023-01-15T12:50:01;16.80;56.00
27258;DHT22;62045;49.986;8.672;2023-01-15T12:55:12;16.80;55.80
27258;DHT22;62045;49.986;8.672;2023-01-15T13:00:17;16.70;55.40
27258;DHT22;62045;49.986;8.672;2023-01-15T13:05:20;16.70;55.10
27258;DHT22;62045;49.986;8.672;2023-01-15T13:10:25;16.80;54.70
27258;DHT22;62045;49.986;8.672;2023-01-15T13:15:30;16.90;54.20
27258;DHT22;62045;49.986;8.672;2023-01-15T13:20:39;16.90;53.90
27258;DHT22;62045;49.986;8.672;2023-01-15T13:25:58;17.00;53.70
27258;DHT22;62045;49.986;8.672;2023-01-15T13:31:11;17.00;53.50
27258;DHT22;62045;49.986;8.672;2023-01-15T13:36:15;16.90;53.40
27258;DHT22;62045;49.986;8.672;2023-01-15T13:41:21;16.90;53.50
27258;DHT22;62045;49.986;8.672;2023-01-15T13:46:23;16.80;53.60
27258;DHT22;62045;49.986;8.672;2023-01-15T13:51:27;16.80;53.60
27258;DHT22;62045;49.986;8.672;2023-01-15T13:56:31;16.70;53.40
27258;DHT22;62045;49.986;8.672;2023-01-15T14:01:33;16.70;53.40
27258;DHT22;62045;49.986;8.672;2023-01-15T14:06:37;16.70;53.50
27258;DHT22;62045;49.986;8.672;2023-01-15T14:11:47;16.70;53.50
27258;DHT22;62045;49.986;8.672;2023-01-15T14:16:55;16.70;53.30
27258;DHT22;62045;49.986;8.672;2023-01-15T14:22:26;16.80;53.10
27258;DHT22;62045;49.986;8.672;2023-01-15T14:27:47;16.90;52.90
27258;DHT22;62045;49.986;8.672;2023-01-15T14:32:59;17.00;52.80
27258;DHT22;62045;49.986;8.672;2023-01-15T14:38:05;17.00;52.80
27258;DHT22;62045;49.986;8.672;2023-01-15T14:43:13;16.90;52.80
27258;DHT22;62045;49.986;8.672;2023-01-15T14:48:18;16.90;52.90
27258;DHT22;62045;49.986;8.672;2023-01-15T14:53:28;16.90;53.60
27258;DHT22;62045;49.986;8.672;2023-01-15T14:58:36;16.80;53.90
27258;DHT22;62045;49.986;8.672;2023-01-15T15:03:42;16.80;54.50
27258;DHT22;62045;49.986;8.672;2023-01-15T15:08:45;16.80;54.80
27258;DHT22;62045;49.986;8.672;2023-01-15T15:13:48;16.80;55.00
27258;DHT22;62045;49.986;8.672;2023-01-15T15:18:56;16.90;55.00
27258;DHT22;62045;49.986;8.672;2023-01-15T15:24:02;16.90;55.10
27258;DHT22;62045;49.986;8.672;2023-01-15T15:29:11;16.90;55.20
27258;DHT22;62045;49.986;8.672;2023-01-15T15:34:16;16.90;55.30
27258;DHT22;62045;49.986;8.672;2023-01-15T15:39:19;16.90;55.50
27258;DHT22;62045;49.986;8.672;2023-01-15T15:44:30;16.80;55.70
27258;DHT22;62045;49.986;8.672;2023-01-15T15:49:37;16.80;55.90
27258;DHT22;62045;49.986;8.672;2023-01-15T15:54:38;16.70;56.60
27258;DHT22;62045;49.986;8.672;2023-01-15T15:59:44;16.70;56.10
27258;DHT22;62045;49.986;8.672;2023-01-15T16:04:47;16.70;56.20
27258;DHT22;62045;49.986;8.672;2023-01-15T16:09:48;16.70;56.30
27258;DHT22;62045;49.986;8.672;2023-01-15T16:14:53;16.80;56.30
27258;DHT22;62045;49.986;8.672;2023-01-15T16:19:54;16.80;56.20
27258;DHT22;62045;49.986;8.672;2023-01-15T16:24:56;16.90;56.20
27258;DHT22;62045;49.986;8.672;2023-01-15T16:29:59;16.90;56.20
27258;DHT22;62045;49.986;8.672;2023-01-15T16:35:04;16.90;56.30
27258;DHT22;62045;49.986;8.672;2023-01-15T16:40:14;16.80;56.30
27258;DHT22;62045;49.986;8.672;2023-01-15T16:45:23;16.80;56.50
27258;DHT22;62045;49.986;8.672;2023-01-15T16:50:27;16.70;56.50
27258;DHT22;62045;49.986;8.672;2023-01-15T16:55:35;16.70;56.80
27258;DHT22;62045;49.986;8.672;2023-01-15T17:00:38;16.60;57.00
27258;DHT22;62045;49.986;8.672;2023-01-15T17:05:40;16.60;57.10
27258;DHT22;62045;49.986;8.672;2023-01-15T17:10:51;16.60;57.20
27258;DHT22;62045;49.986;8.672;2023-01-15T17:16:15;16.60;57.20
27258;DHT22;62045;49.986;8.672;2023-01-15T17:21:18;16.70;57.20
27258;DHT22;62045;49.986;8.672;2023-01-15T17:26:21;16.70;57.10
27258;DHT22;62045;49.986;8.672;2023-01-15T17:31:26;16.70;57.10
27258;DHT22;62045;49.986;8.672;2023-01-15T17:36:28;16.70;57.10
27258;DHT22;62045;49.986;8.672;2023-01-15T17:41:29;16.70;57.20
27258;DHT22;62045;49.986;8.672;2023-01-15T17:46:31;16.60;57.20
27258;DHT22;62045;49.986;8.672;2023-01-15T17:51:31;16.60;57.40
27258;DHT22;62045;49.986;8.672;2023-01-15T17:56:32;16.50;58.00
27258;DHT22;62045;49.986;8.672;2023-01-15T18:01:37;16.50;57.60
27258;DHT22;62045;49.986;8.672;2023-01-15T18:06:40;16.50;57.60
27258;DHT22;62045;49.986;8.672;2023-01-15T18:11:42;16.60;57.60
27258;DHT22;62045;49.986;8.672;2023-01-15T18:16:44;16.70;57.50
27258;DHT22;62045;49.986;8.672;2023-01-15T18:21:45;16.80;57.50
27258;DHT22;62045;49.986;8.672;2023-01-15T18:26:46;16.80;57.40
27258;DHT22;62045;49.986;8.672;2023-01-15T18:31:48;16.80;57.40
27258;DHT22;62045;49.986;8.672;2023-01-15T18:36:49;16.80;57.50
27258;DHT22;62045;49.986;8.672;2023-01-15T18:41:50;16.70;57.50
27258;DHT22;62045;49.986;8.672;2023-01-15T18:46:54;16.70;57.70
27258;DHT22;62045;49.986;8.672;2023-01-15T18:51:56;16.70;57.70
27258;DHT22;62045;49.986;8.672;2023-01-15T18:56:56;16.60;57.70
27258;DHT22;62045;49.986;8.672;2023-01-15T19:01:58;16.50;57.80
27258;DHT22;62045;49.986;8.672;2023-01-15T19:07:00;16.50;57.90
27258;DHT22;62045;49.986;8.672;2023-01-15T19:12:01;16.60;57.90
27258;DHT22;62045;49.986;8.672;2023-01-15T19:17:03;16.70;57.70
27258;DHT22;62045;49.986;8.672;2023-01-15T19:22:04;16.80;57.60
27258;DHT22;62045;49.986;8.672;2023-01-15T19:27:06;16.80;57.60
27258;DHT22;62045;49.986;8.672;2023-01-15T19:32:08;16.80;57.60
27258;DHT22;62045;49.986;8.672;2023-01-15T19:37:09;16.80;57.60
27258;DHT22;62045;49.986;8.672;2023-01-15T19:42:12;16.70;57.70
27258;DHT22;62045;49.986;8.672;2023-01-15T19:47:16;16.70;57.70
27258;DHT22;62045;49.986;8.672;2023-01-15T19:52:21;16.60;57.80
27258;DHT22;62045;49.986;8.672;2023-01-15T19:57:22;16.50;57.90
27258;DHT22;62045;49.986;8.672;2023-01-15T20:02:24;16.50;58.00
27258;DHT22;62045;49.986;8.672;2023-01-15T20:07:25;16.50;58.00
27258;DHT22;62045;49.986;8.672;2023-01-15T20:12:25;16.60;58.00
27258;DHT22;62045;49.986;8.672;2023-01-15T20:17:28;16.70;57.90
27258;DHT22;62045;49.986;8.672;2023-01-15T20:22:29;16.80;57.80
27258;DHT22;62045;49.986;8.672;2023-01-15T20:27:31;16.80;57.70
27258;DHT22;62045;49.986;8.672;2023-01-15T20:32:34;16.80;57.70
27258;DHT22;62045;49.986;8.672;2023-01-15T20:37:35;16.80;57.70
27258;DHT22;62045;49.986;8.672;2023-01-15T20:42:36;16.70;57.70
27258;DHT22;62045;49.986;8.672;2023-01-15T20:47:39;16.70;57.80
27258;DHT22;62045;49.986;8.672;2023-01-15T20:52:43;16.60;57.80
27258;DHT22;62045;49.986;8.672;2023-01-15T20:57:45;16.50;57.90
27258;DHT22;62045;49.986;8.672;2023-01-15T21:02:47;16.50;58.00
27258;DHT22;62045;49.986;8.672;2023-01-15T21:07:48;16.50;58.10
27258;DHT22;62045;49.986;8.672;2023-01-15T21:12:48;16.60;58.10
27258;DHT22;62045;49.986;8.672;2023-01-15T21:17:53;16.70;58.00
27258;DHT22;62045;49.986;8.672;2023-01-15T21:22:54;16.80;57.90
27258;DHT22;62045;49.986;8.672;2023-01-15T21:27:55;16.80;57.90
27258;DHT22;62045;49.986;8.672;2023-01-15T21:32:57;16.80;57.90
27258;DHT22;62045;49.986;8.672;2023-01-15T21:37:57;16.80;57.90
27258;DHT22;62045;49.986;8.672;2023-01-15T21:42:58;16.70;57.90
27258;DHT22;62045;49.986;8.672;2023-01-15T21:48:00;16.70;58.10
27258;DHT22;62045;49.986;8.672;2023-01-15T21:53:01;16.70;58.10
27258;DHT22;62045;49.986;8.672;2023-01-15T21:58:02;16.60;58.10
27258;DHT22;62045;49.986;8.672;2023-01-15T22:03:04;16.60;58.20
27258;DHT22;62045;49.986;8.672;2023-01-15T22:08:04;16.50;58.30
27258;DHT22;62045;49.986;8.672;2023-01-15T22:13:05;16.50;58.30
27258;DHT22;62045;49.986;8.672;2023-01-15T22:18:07;16.40;58.30
27258;DHT22;62045;49.986;8.672;2023-01-15T22:23:08;16.30;58.40
27258;DHT22;62045;49.986;8.672;2023-01-15T22:28:09;16.30;58.40
27258;DHT22;62045;49.986;8.672;2023-01-15T22:33:11;16.30;58.50
27258;DHT22;62045;49.986;8.672;2023-01-15T22:38:11;16.30;58.60
27258;DHT22;62045;49.986;8.672;2023-01-15T22:43:12;16.20;58.60
27258;DHT22;62045;49.986;8.672;2023-01-15T22:48:14;16.30;58.70
27258;DHT22;62045;49.986;8.672;2023-01-15T22:53:15;16.30;58.60
27258;DHT22;62045;49.986;8.672;2023-01-15T22:58:15;16.40;58.50
27258;DHT22;62045;49.986;8.672;2023-01-15T23:03:17;16.60;58.40
27258;DHT22;62045;49.986;8.672;2023-01-15T23:08:18;16.70;58.10
27258;DHT22;62045;49.986;8.672;2023-01-15T23:13:19;16.80;57.90
27258;DHT22;62045;49.986;8.672;2023-01-15T23:18:21;16.80;57.80
27258;DHT22;62045;49.986;8.672;2023-01-15T23:23:22;16.90;57.70
27258;DHT22;62045;49.986;8.672;2023-01-15T23:28:22;16.80;57.70
27258;DHT22;62045;49.986;8.672;2023-01-15T23:33:25;16.80;57.70
27258;DHT22;62045;49.986;8.672;2023-01-15T23:38:26;16.70;57.80
27258;DHT22;62045;49.986;8.672;2023-01-15T23:43:27;16.70;57.90
27258;DHT22;62045;49.986;8.672;2023-01-15T23:48:29;16.70;58.00
27258;DHT22;62045;49.986;8.672;2023-01-15T23:53:30;16.60;58.00
27258;DHT22;62045;49.986;8.672;2023-01-15T23:58:30;16.50;58.10
